sensor_id;sensor_type;location;lat;lon;timestamp;P1;durP1;ratioP1;P2;durP2;ratioP2
10701;SDS011;5402;50.004;8.246;2023-03-21T00:02:22;4.83;;;3.30;;
10701;SDS011;5402;50.004;8.246;2023-03-21T00:04:49;5.00;;;2.93;;
10701;SDS011;5402;50.004;8.246;2023-03-21T00:07:16;4.93;;;2.90;;
10701;SDS011;5402;50.004;8.246;2023-03-21T00:09:44;5.80;;;3.40;;
10701;SDS011;5402;50.004;8.246;2023-03-21T00:12:11;7.40;;;3.27;;
10701;SDS011;5402;50.004;8.246;2023-03-21T00:14:38;5.77;;;3.00;;
10701;SDS011;5402;50.004;8.246;2023-03-21T00:17:05;4.10;;;2.90;;
10701;SDS011;5402;50.004;8.246;2023-03-21T00:19:31;4.50;;;2.87;;
10701;SDS011;5402;50.004;8.246;2023-03-21T00:22:02;6.10;;;2.90;;
10701;SDS011;5402;50.004;8.246;2023-03-21T00:24:29;3.87;;;3.00;;
10701;SDS011;5402;50.004;8.246;2023-03-21T00:26:57;3.63;;;2.67;;
10701;SDS011;5402;50.004;8.246;2023-03-21T00:29:23;3.73;;;2.57;;
10701;SDS011;5402;50.004;8.246;2023-03-21T00:31:50;4.83;;;3.07;;
10701;SDS011;5402;50.004;8.246;2023-03-21T00:34:17;3.43;;;2.50;;
10701;SDS011;5402;50.004;8.246;2023-03-21T00:36:44;4.43;;;2.80;;
10701;SDS011;5402;50.004;8.246;2023-03-21T00:39:10;5.07;;;2.90;;
10701;SDS011;5402;50.004;8.246;2023-03-21T00:41:38;5.57;;;2.87;;
10701;SDS011;5402;50.004;8.246;2023-03-21T00:44:06;5.17;;;2.97;;
10701;SDS011;5402;50.004;8.246;2023-03-21T00:46:33;4.40;;;2.80;;
10701;SDS011;5402;50.004;8.246;2023-03-21T00:49:00;6.30;;;2.97;;
10701;SDS011;5402;50.004;8.246;2023-03-21T00:51:27;5.33;;;2.87;;
10701;SDS011;5402;50.004;8.246;2023-03-21T00:53:55;4.70;;;2.50;;
10701;SDS011;5402;50.004;8.246;2023-03-21T00:56:23;5.43;;;2.70;;
10701;SDS011;5402;50.004;8.246;2023-03-21T00:58:50;4.70;;;3.10;;
10701;SDS011;5402;50.004;8.246;2023-03-21T01:01:18;7.30;;;3.07;;
10701;SDS011;5402;50.004;8.246;2023-03-21T01:03:44;5.73;;;3.10;;
10701;SDS011;5402;50.004;8.246;2023-03-21T01:06:15;3.60;;;2.70;;
10701;SDS011;5402;50.004;8.246;2023-03-21T01:08:44;4.87;;;3.17;;
10701;SDS011;5402;50.004;8.246;2023-03-21T01:11:13;3.73;;;3.10;;
10701;SDS011;5402;50.004;8.246;2023-03-21T01:13:41;5.17;;;3.60;;
10701;SDS011;5402;50.004;8.246;2023-03-21T01:16:08;4.30;;;3.10;;
10701;SDS011;5402;50.004;8.246;2023-03-21T01:18:37;4.47;;;3.10;;
10701;SDS011;5402;50.004;8.246;2023-03-21T01:21:07;4.93;;;3.13;;
10701;SDS011;5402;50.004;8.246;2023-03-21T01:23:35;4.90;;;3.17;;
10701;SDS011;5402;50.004;8.246;2023-03-21T01:26:02;3.27;;;2.97;;
10701;SDS011;5402;50.004;8.246;2023-03-21T01:28:29;5.53;;;3.13;;
10701;SDS011;5402;50.004;8.246;2023-03-21T01:30:56;7.77;;;3.17;;
10701;SDS011;5402;50.004;8.246;2023-03-21T01:33:26;3.60;;;3.07;;
10701;SDS011;5402;50.004;8.246;2023-03-21T01:35:55;4.67;;;3.47;;
10701;SDS011;5402;50.004;8.246;2023-03-21T01:38:22;6.07;;;3.20;;
10701;SDS011;5402;50.004;8.246;2023-03-21T01:40:49;5.00;;;3.00;;
10701;SDS011;5402;50.004;8.246;2023-03-21T01:43:18;4.20;;;3.07;;
10701;SDS011;5402;50.004;8.246;2023-03-21T01:48:54;7.50;;;3.07;;
10701;SDS011;5402;50.004;8.246;2023-03-21T01:51:25;5.37;;;3.43;;
10701;SDS011;5402;50.004;8.246;2023-03-21T01:53:52;4.70;;;3.70;;
10701;SDS011;5402;50.004;8.246;2023-03-21T01:56:22;5.27;;;2.93;;
10701;SDS011;5402;50.004;8.246;2023-03-21T01:58:52;5.53;;;3.20;;
10701;SDS011;5402;50.004;8.246;2023-03-21T02:01:22;6.53;;;3.10;;
10701;SDS011;5402;50.004;8.246;2023-03-21T02:03:49;5.67;;;3.40;;
10701;SDS011;5402;50.004;8.246;2023-03-21T02:06:23;6.33;;;3.30;;
10701;SDS011;5402;50.004;8.246;2023-03-21T02:08:59;5.53;;;3.57;;
10701;SDS011;5402;50.004;8.246;2023-03-21T02:11:28;5.37;;;3.10;;
10701;SDS011;5402;50.004;8.246;2023-03-21T02:13:57;5.57;;;4.30;;
10701;SDS011;5402;50.004;8.246;2023-03-21T02:16:26;3.67;;;3.00;;
10701;SDS011;5402;50.004;8.246;2023-03-21T02:19:00;7.60;;;3.70;;
10701;SDS011;5402;50.004;8.246;2023-03-21T02:22:03;8.50;;;3.43;;
10701;SDS011;5402;50.004;8.246;2023-03-21T02:25:05;7.47;;;3.53;;
10701;SDS011;5402;50.004;8.246;2023-03-21T02:27:54;5.73;;;3.27;;
10701;SDS011;5402;50.004;8.246;2023-03-21T02:30:29;4.07;;;3.33;;
10701;SDS011;5402;50.004;8.246;2023-03-21T02:33:21;6.23;;;3.27;;
10701;SDS011;5402;50.004;8.246;2023-03-21T02:36:14;6.07;;;3.60;;
10701;SDS011;5402;50.004;8.246;2023-03-21T02:38:49;6.33;;;3.40;;
10701;SDS011;5402;50.004;8.246;2023-03-21T02:41:20;6.37;;;3.17;;
10701;SDS011;5402;50.004;8.246;2023-03-21T02:43:56;6.53;;;3.60;;
10701;SDS011;5402;50.004;8.246;2023-03-21T02:46:29;5.13;;;3.27;;
10701;SDS011;5402;50.004;8.246;2023-03-21T02:49:00;6.60;;;3.53;;
10701;SDS011;5402;50.004;8.246;2023-03-21T02:51:32;4.57;;;3.53;;
10701;SDS011;5402;50.004;8.246;2023-03-21T02:54:03;6.03;;;3.30;;
10701;SDS011;5402;50.004;8.246;2023-03-21T02:56:34;4.50;;;2.77;;
10701;SDS011;5402;50.004;8.246;2023-03-21T02:59:02;4.73;;;3.40;;
10701;SDS011;5402;50.004;8.246;2023-03-21T03:01:30;6.13;;;3.33;;
10701;SDS011;5402;50.004;8.246;2023-03-21T03:03:57;7.20;;;3.53;;
10701;SDS011;5402;50.004;8.246;2023-03-21T03:06:25;4.27;;;3.10;;
10701;SDS011;5402;50.004;8.246;2023-03-21T03:08:57;3.83;;;3.00;;
10701;SDS011;5402;50.004;8.246;2023-03-21T03:11:38;8.13;;;3.50;;
10701;SDS011;5402;50.004;8.246;2023-03-21T03:14:15;6.33;;;3.27;;
10701;SDS011;5402;50.004;8.246;2023-03-21T03:17:02;5.10;;;3.30;;
10701;SDS011;5402;50.004;8.246;2023-03-21T03:19:43;6.77;;;3.80;;
10701;SDS011;5402;50.004;8.246;2023-03-21T03:22:20;6.10;;;4.03;;
10701;SDS011;5402;50.004;8.246;2023-03-21T03:24:55;9.50;;;4.20;;
10701;SDS011;5402;50.004;8.246;2023-03-21T03:27:26;7.10;;;4.20;;
10701;SDS011;5402;50.004;8.246;2023-03-21T03:29:56;7.23;;;3.83;;
10701;SDS011;5402;50.004;8.246;2023-03-21T03:32:27;7.63;;;3.40;;
10701;SDS011;5402;50.004;8.246;2023-03-21T03:34:55;7.23;;;3.60;;
10701;SDS011;5402;50.004;8.246;2023-03-21T03:37:24;6.00;;;3.70;;
10701;SDS011;5402;50.004;8.246;2023-03-21T03:39:56;6.87;;;3.90;;
10701;SDS011;5402;50.004;8.246;2023-03-21T03:42:30;6.40;;;3.77;;
10701;SDS011;5402;50.004;8.246;2023-03-21T03:45:01;5.43;;;3.53;;
10701;SDS011;5402;50.004;8.246;2023-03-21T03:47:30;6.03;;;3.67;;
10701;SDS011;5402;50.004;8.246;2023-03-21T03:50:04;4.87;;;3.83;;
10701;SDS011;5402;50.004;8.246;2023-03-21T03:52:38;6.70;;;4.00;;
10701;SDS011;5402;50.004;8.246;2023-03-21T03:55:09;6.50;;;4.50;;
10701;SDS011;5402;50.004;8.246;2023-03-21T03:57:41;6.00;;;3.47;;
10701;SDS011;5402;50.004;8.246;2023-03-21T04:00:10;5.27;;;3.93;;
10701;SDS011;5402;50.004;8.246;2023-03-21T04:02:39;5.07;;;3.97;;
10701;SDS011;5402;50.004;8.246;2023-03-21T04:05:08;4.93;;;3.70;;
10701;SDS011;5402;50.004;8.246;2023-03-21T04:07:35;4.50;;;3.50;;
10701;SDS011;5402;50.004;8.246;2023-03-21T04:10:02;5.07;;;3.53;;
10701;SDS011;5402;50.004;8.246;2023-03-21T04:12:30;5.53;;;4.00;;
10701;SDS011;5402;50.004;8.246;2023-03-21T04:14:57;5.87;;;3.63;;
10701;SDS011;5402;50.004;8.246;2023-03-21T04:17:24;9.33;;;4.50;;
10701;SDS011;5402;50.004;8.246;2023-03-21T04:19:50;6.63;;;3.97;;
10701;SDS011;5402;50.004;8.246;2023-03-21T04:22:17;7.90;;;4.10;;
10701;SDS011;5402;50.004;8.246;2023-03-21T04:24:44;6.33;;;3.77;;
10701;SDS011;5402;50.004;8.246;2023-03-21T04:27:11;6.63;;;3.73;;
10701;SDS011;5402;50.004;8.246;2023-03-21T04:29:40;7.00;;;3.93;;
10701;SDS011;5402;50.004;8.246;2023-03-21T04:32:07;9.03;;;4.50;;
10701;SDS011;5402;50.004;8.246;2023-03-21T04:34:40;7.40;;;3.70;;
10701;SDS011;5402;50.004;8.246;2023-03-21T04:37:07;6.13;;;4.03;;
10701;SDS011;5402;50.004;8.246;2023-03-21T04:39:36;6.10;;;3.80;;
10701;SDS011;5402;50.004;8.246;2023-03-21T04:42:03;5.63;;;3.43;;
10701;SDS011;5402;50.004;8.246;2023-03-21T04:44:30;5.17;;;3.40;;
10701;SDS011;5402;50.004;8.246;2023-03-21T04:46:58;6.07;;;3.27;;
10701;SDS011;5402;50.004;8.246;2023-03-21T04:49:24;5.20;;;3.73;;
10701;SDS011;5402;50.004;8.246;2023-03-21T04:51:51;6.87;;;3.93;;
10701;SDS011;5402;50.004;8.246;2023-03-21T04:54:21;4.40;;;3.37;;
10701;SDS011;5402;50.004;8.246;2023-03-21T04:56:48;5.97;;;3.47;;
10701;SDS011;5402;50.004;8.246;2023-03-21T04:59:16;5.23;;;3.63;;
10701;SDS011;5402;50.004;8.246;2023-03-21T05:01:43;6.20;;;4.00;;
10701;SDS011;5402;50.004;8.246;2023-03-21T05:04:12;5.60;;;3.70;;
10701;SDS011;5402;50.004;8.246;2023-03-21T05:06:39;4.87;;;3.60;;
10701;SDS011;5402;50.004;8.246;2023-03-21T05:09:07;5.93;;;3.80;;
10701;SDS011;5402;50.004;8.246;2023-03-21T05:11:35;6.87;;;3.90;;
10701;SDS011;5402;50.004;8.246;2023-03-21T05:14:04;6.17;;;3.97;;
10701;SDS011;5402;50.004;8.246;2023-03-21T05:16:31;6.00;;;3.83;;
10701;SDS011;5402;50.004;8.246;2023-03-21T05:18:58;5.83;;;3.73;;
10701;SDS011;5402;50.004;8.246;2023-03-21T05:21:29;4.20;;;3.60;;
10701;SDS011;5402;50.004;8.246;2023-03-21T05:23:58;7.57;;;4.13;;
10701;SDS011;5402;50.004;8.246;2023-03-21T05:26:27;6.13;;;3.80;;
10701;SDS011;5402;50.004;8.246;2023-03-21T05:28:54;6.17;;;4.50;;
10701;SDS011;5402;50.004;8.246;2023-03-21T05:31:21;8.50;;;4.17;;
10701;SDS011;5402;50.004;8.246;2023-03-21T05:33:48;5.90;;;3.93;;
10701;SDS011;5402;50.004;8.246;2023-03-21T05:36:15;6.60;;;4.17;;
10701;SDS011;5402;50.004;8.246;2023-03-21T05:38:43;5.93;;;3.67;;
10701;SDS011;5402;50.004;8.246;2023-03-21T05:41:10;10.47;;;4.20;;
10701;SDS011;5402;50.004;8.246;2023-03-21T05:43:37;7.07;;;3.93;;
10701;SDS011;5402;50.004;8.246;2023-03-21T05:46:04;5.77;;;4.20;;
10701;SDS011;5402;50.004;8.246;2023-03-21T05:48:31;7.07;;;4.10;;
10701;SDS011;5402;50.004;8.246;2023-03-21T05:50:58;8.83;;;4.57;;
10701;SDS011;5402;50.004;8.246;2023-03-21T05:53:25;5.87;;;3.83;;
10701;SDS011;5402;50.004;8.246;2023-03-21T05:55:53;5.57;;;3.80;;
10701;SDS011;5402;50.004;8.246;2023-03-21T05:58:20;7.23;;;3.93;;
10701;SDS011;5402;50.004;8.246;2023-03-21T06:00:46;8.53;;;4.60;;
10701;SDS011;5402;50.004;8.246;2023-03-21T06:03:13;10.37;;;5.13;;
10701;SDS011;5402;50.004;8.246;2023-03-21T06:05:40;10.33;;;5.73;;
10701;SDS011;5402;50.004;8.246;2023-03-21T06:08:07;7.87;;;5.50;;
10701;SDS011;5402;50.004;8.246;2023-03-21T06:10:33;10.30;;;5.00;;
10701;SDS011;5402;50.004;8.246;2023-03-21T06:13:01;8.63;;;4.90;;
10701;SDS011;5402;50.004;8.246;2023-03-21T06:15:28;9.00;;;5.57;;
10701;SDS011;5402;50.004;8.246;2023-03-21T06:17:55;9.43;;;5.77;;
10701;SDS011;5402;50.004;8.246;2023-03-21T06:20:22;9.03;;;5.67;;
10701;SDS011;5402;50.004;8.246;2023-03-21T06:22:50;8.40;;;5.37;;
10701;SDS011;5402;50.004;8.246;2023-03-21T06:25:17;9.90;;;5.27;;
10701;SDS011;5402;50.004;8.246;2023-03-21T06:27:44;10.07;;;5.93;;
10701;SDS011;5402;50.004;8.246;2023-03-21T06:30:13;10.10;;;5.30;;
10701;SDS011;5402;50.004;8.246;2023-03-21T06:32:40;7.47;;;5.50;;
10701;SDS011;5402;50.004;8.246;2023-03-21T06:35:07;8.60;;;5.47;;
10701;SDS011;5402;50.004;8.246;2023-03-21T06:37:34;7.97;;;4.80;;
10701;SDS011;5402;50.004;8.246;2023-03-21T06:40:02;9.53;;;4.80;;
10701;SDS011;5402;50.004;8.246;2023-03-21T06:42:29;8.80;;;4.70;;
10701;SDS011;5402;50.004;8.246;2023-03-21T06:44:56;7.87;;;4.77;;
10701;SDS011;5402;50.004;8.246;2023-03-21T06:47:24;8.07;;;4.93;;
10701;SDS011;5402;50.004;8.246;2023-03-21T06:49:51;5.90;;;4.40;;
10701;SDS011;5402;50.004;8.246;2023-03-21T06:52:18;9.23;;;4.87;;
10701;SDS011;5402;50.004;8.246;2023-03-21T06:54:48;7.73;;;4.47;;
10701;SDS011;5402;50.004;8.246;2023-03-21T06:57:15;4.93;;;3.67;;
10701;SDS011;5402;50.004;8.246;2023-03-21T06:59:44;8.60;;;4.70;;
10701;SDS011;5402;50.004;8.246;2023-03-21T07:02:11;7.37;;;4.30;;
10701;SDS011;5402;50.004;8.246;2023-03-21T07:04:42;5.80;;;4.23;;
10701;SDS011;5402;50.004;8.246;2023-03-21T07:07:08;5.80;;;4.13;;
10701;SDS011;5402;50.004;8.246;2023-03-21T07:09:35;7.27;;;4.23;;
10701;SDS011;5402;50.004;8.246;2023-03-21T07:12:02;8.57;;;4.53;;
10701;SDS011;5402;50.004;8.246;2023-03-21T07:14:29;5.67;;;3.83;;
10701;SDS011;5402;50.004;8.246;2023-03-21T07:16:56;6.83;;;4.17;;
10701;SDS011;5402;50.004;8.246;2023-03-21T07:19:22;7.73;;;3.93;;
10701;SDS011;5402;50.004;8.246;2023-03-21T07:21:51;5.80;;;3.77;;
10701;SDS011;5402;50.004;8.246;2023-03-21T07:24:18;5.30;;;3.60;;
10701;SDS011;5402;50.004;8.246;2023-03-21T07:26:45;10.27;;;3.93;;
10701;SDS011;5402;50.004;8.246;2023-03-21T07:29:11;6.73;;;4.03;;
10701;SDS011;5402;50.004;8.246;2023-03-21T07:31:39;6.97;;;4.57;;
10701;SDS011;5402;50.004;8.246;2023-03-21T07:34:06;6.63;;;3.87;;
10701;SDS011;5402;50.004;8.246;2023-03-21T07:36:32;8.03;;;4.00;;
10701;SDS011;5402;50.004;8.246;2023-03-21T07:39:02;7.73;;;3.63;;
10701;SDS011;5402;50.004;8.246;2023-03-21T07:41:30;9.70;;;4.17;;
10701;SDS011;5402;50.004;8.246;2023-03-21T07:43:57;7.33;;;3.90;;
10701;SDS011;5402;50.004;8.246;2023-03-21T07:46:24;7.30;;;3.60;;
10701;SDS011;5402;50.004;8.246;2023-03-21T07:48:51;5.07;;;3.67;;
10701;SDS011;5402;50.004;8.246;2023-03-21T07:51:18;7.27;;;3.70;;
10701;SDS011;5402;50.004;8.246;2023-03-21T07:53:45;7.53;;;3.67;;
10701;SDS011;5402;50.004;8.246;2023-03-21T07:56:13;4.87;;;3.77;;
10701;SDS011;5402;50.004;8.246;2023-03-21T07:58:40;5.73;;;3.40;;
10701;SDS011;5402;50.004;8.246;2023-03-21T08:01:07;9.43;;;3.77;;
10701;SDS011;5402;50.004;8.246;2023-03-21T08:03:34;8.83;;;4.20;;
10701;SDS011;5402;50.004;8.246;2023-03-21T08:06:02;4.77;;;3.60;;
10701;SDS011;5402;50.004;8.246;2023-03-21T08:08:28;6.33;;;3.57;;
10701;SDS011;5402;50.004;8.246;2023-03-21T08:10:55;5.93;;;3.60;;
10701;SDS011;5402;50.004;8.246;2023-03-21T08:13:23;8.10;;;4.23;;
10701;SDS011;5402;50.004;8.246;2023-03-21T08:15:51;8.23;;;4.23;;
10701;SDS011;5402;50.004;8.246;2023-03-21T08:18:18;5.80;;;3.70;;
10701;SDS011;5402;50.004;8.246;2023-03-21T08:20:45;7.60;;;3.97;;
10701;SDS011;5402;50.004;8.246;2023-03-21T08:23:16;6.60;;;3.67;;
10701;SDS011;5402;50.004;8.246;2023-03-21T08:25:42;6.93;;;4.07;;
10701;SDS011;5402;50.004;8.246;2023-03-21T08:28:09;6.30;;;3.87;;
10701;SDS011;5402;50.004;8.246;2023-03-21T08:30:37;8.93;;;3.90;;
10701;SDS011;5402;50.004;8.246;2023-03-21T08:33:04;6.40;;;4.00;;
10701;SDS011;5402;50.004;8.246;2023-03-21T08:35:31;6.97;;;4.37;;
10701;SDS011;5402;50.004;8.246;2023-03-21T08:37:58;8.73;;;4.10;;
10701;SDS011;5402;50.004;8.246;2023-03-21T08:40:27;8.83;;;4.10;;
10701;SDS011;5402;50.004;8.246;2023-03-21T08:42:54;6.20;;;4.03;;
10701;SDS011;5402;50.004;8.246;2023-03-21T08:45:20;8.13;;;3.60;;
10701;SDS011;5402;50.004;8.246;2023-03-21T08:47:49;7.67;;;4.03;;
10701;SDS011;5402;50.004;8.246;2023-03-21T08:50:16;9.83;;;3.70;;
10701;SDS011;5402;50.004;8.246;2023-03-21T08:52:44;12.30;;;3.67;;
10701;SDS011;5402;50.004;8.246;2023-03-21T08:55:11;5.20;;;3.60;;
10701;SDS011;5402;50.004;8.246;2023-03-21T08:57:39;5.80;;;3.97;;
10701;SDS011;5402;50.004;8.246;2023-03-21T09:00:07;7.00;;;3.63;;
10701;SDS011;5402;50.004;8.246;2023-03-21T09:02:38;8.23;;;3.63;;
10701;SDS011;5402;50.004;8.246;2023-03-21T09:05:07;6.23;;;4.00;;
10701;SDS011;5402;50.004;8.246;2023-03-21T09:07:35;6.63;;;3.90;;
10701;SDS011;5402;50.004;8.246;2023-03-21T09:10:03;7.67;;;3.83;;
10701;SDS011;5402;50.004;8.246;2023-03-21T09:12:31;5.10;;;3.37;;
10701;SDS011;5402;50.004;8.246;2023-03-21T09:14:59;8.87;;;3.53;;
10701;SDS011;5402;50.004;8.246;2023-03-21T09:17:26;5.30;;;3.30;;
10701;SDS011;5402;50.004;8.246;2023-03-21T09:19:53;8.03;;;3.87;;
10701;SDS011;5402;50.004;8.246;2023-03-21T09:22:21;5.33;;;3.03;;
10701;SDS011;5402;50.004;8.246;2023-03-21T09:24:49;4.70;;;3.03;;
10701;SDS011;5402;50.004;8.246;2023-03-21T09:27:16;5.73;;;3.60;;
10701;SDS011;5402;50.004;8.246;2023-03-21T09:29:46;5.17;;;3.03;;
10701;SDS011;5402;50.004;8.246;2023-03-21T09:32:14;7.33;;;3.50;;
10701;SDS011;5402;50.004;8.246;2023-03-21T09:34:42;4.73;;;3.30;;
10701;SDS011;5402;50.004;8.246;2023-03-21T09:37:09;5.27;;;3.43;;
10701;SDS011;5402;50.004;8.246;2023-03-21T09:39:38;5.63;;;3.10;;
10701;SDS011;5402;50.004;8.246;2023-03-21T09:42:09;4.63;;;3.23;;
10701;SDS011;5402;50.004;8.246;2023-03-21T09:44:47;4.90;;;3.03;;
10701;SDS011;5402;50.004;8.246;2023-03-21T09:47:26;7.77;;;3.40;;
10701;SDS011;5402;50.004;8.246;2023-03-21T09:49:57;4.33;;;3.20;;
10701;SDS011;5402;50.004;8.246;2023-03-21T09:52:28;5.37;;;3.10;;
10701;SDS011;5402;50.004;8.246;2023-03-21T09:55:00;5.77;;;3.10;;
10701;SDS011;5402;50.004;8.246;2023-03-21T09:57:43;7.67;;;3.33;;
10701;SDS011;5402;50.004;8.246;2023-03-21T10:00:14;5.43;;;2.83;;
10701;SDS011;5402;50.004;8.246;2023-03-21T10:02:49;4.77;;;3.17;;
10701;SDS011;5402;50.004;8.246;2023-03-21T10:05:18;4.17;;;3.30;;
10701;SDS011;5402;50.004;8.246;2023-03-21T10:07:49;6.30;;;3.37;;
10701;SDS011;5402;50.004;8.246;2023-03-21T10:10:21;6.53;;;2.93;;
10701;SDS011;5402;50.004;8.246;2023-03-21T10:12:52;6.83;;;3.87;;
10701;SDS011;5402;50.004;8.246;2023-03-21T10:15:21;6.53;;;3.17;;
10701;SDS011;5402;50.004;8.246;2023-03-21T10:17:52;6.70;;;3.30;;
10701;SDS011;5402;50.004;8.246;2023-03-21T10:20:23;8.23;;;3.63;;
10701;SDS011;5402;50.004;8.246;2023-03-21T10:22:52;8.70;;;3.70;;
10701;SDS011;5402;50.004;8.246;2023-03-21T10:25:23;4.70;;;3.60;;
10701;SDS011;5402;50.004;8.246;2023-03-21T10:27:55;4.83;;;3.17;;
10701;SDS011;5402;50.004;8.246;2023-03-21T10:30:27;8.97;;;3.10;;
10701;SDS011;5402;50.004;8.246;2023-03-21T10:33:01;4.50;;;3.17;;
10701;SDS011;5402;50.004;8.246;2023-03-21T10:35:29;5.50;;;2.97;;
10701;SDS011;5402;50.004;8.246;2023-03-21T10:37:57;5.37;;;3.23;;
10701;SDS011;5402;50.004;8.246;2023-03-21T10:40:26;4.27;;;3.10;;
10701;SDS011;5402;50.004;8.246;2023-03-21T10:42:53;5.47;;;3.30;;
10701;SDS011;5402;50.004;8.246;2023-03-21T10:45:21;5.13;;;3.47;;
10701;SDS011;5402;50.004;8.246;2023-03-21T10:47:49;6.40;;;3.77;;
10701;SDS011;5402;50.004;8.246;2023-03-21T10:50:16;7.53;;;3.77;;
10701;SDS011;5402;50.004;8.246;2023-03-21T10:52:50;6.07;;;3.50;;
10701;SDS011;5402;50.004;8.246;2023-03-21T10:55:25;4.40;;;3.13;;
10701;SDS011;5402;50.004;8.246;2023-03-21T10:57:56;8.67;;;3.53;;
10701;SDS011;5402;50.004;8.246;2023-03-21T11:00:28;7.40;;;3.80;;
10701;SDS011;5402;50.004;8.246;2023-03-21T11:03:00;7.90;;;3.50;;
10701;SDS011;5402;50.004;8.246;2023-03-21T11:05:32;6.00;;;3.70;;
10701;SDS011;5402;50.004;8.246;2023-03-21T11:08:02;5.07;;;3.73;;
10701;SDS011;5402;50.004;8.246;2023-03-21T11:10:33;5.60;;;3.60;;
10701;SDS011;5402;50.004;8.246;2023-03-21T11:13:04;5.57;;;3.97;;
10701;SDS011;5402;50.004;8.246;2023-03-21T11:15:37;9.30;;;3.80;;
10701;SDS011;5402;50.004;8.246;2023-03-21T11:18:14;6.07;;;3.70;;
10701;SDS011;5402;50.004;8.246;2023-03-21T11:20:47;6.03;;;3.90;;
10701;SDS011;5402;50.004;8.246;2023-03-21T11:23:16;6.70;;;3.90;;
10701;SDS011;5402;50.004;8.246;2023-03-21T11:25:44;5.10;;;3.87;;
10701;SDS011;5402;50.004;8.246;2023-03-21T11:28:15;8.53;;;4.00;;
10701;SDS011;5402;50.004;8.246;2023-03-21T11:30:53;6.27;;;4.17;;
10701;SDS011;5402;50.004;8.246;2023-03-21T11:33:21;5.87;;;3.87;;
10701;SDS011;5402;50.004;8.246;2023-03-21T11:36:01;6.27;;;4.20;;
10701;SDS011;5402;50.004;8.246;2023-03-21T11:38:30;8.70;;;4.17;;
10701;SDS011;5402;50.004;8.246;2023-03-21T11:41:02;7.70;;;4.23;;
10701;SDS011;5402;50.004;8.246;2023-03-21T11:43:30;6.33;;;3.83;;
10701;SDS011;5402;50.004;8.246;2023-03-21T11:45:58;5.03;;;3.90;;
10701;SDS011;5402;50.004;8.246;2023-03-21T11:48:30;4.70;;;3.67;;
10701;SDS011;5402;50.004;8.246;2023-03-21T11:51:01;6.07;;;4.17;;
10701;SDS011;5402;50.004;8.246;2023-03-21T11:53:36;6.40;;;3.87;;
10701;SDS011;5402;50.004;8.246;2023-03-21T11:56:12;6.20;;;3.80;;
10701;SDS011;5402;50.004;8.246;2023-03-21T11:58:50;5.07;;;3.17;;
10701;SDS011;5402;50.004;8.246;2023-03-21T12:01:26;4.77;;;3.67;;
10701;SDS011;5402;50.004;8.246;2023-03-21T12:04:03;6.50;;;3.70;;
10701;SDS011;5402;50.004;8.246;2023-03-21T12:06:45;5.17;;;3.90;;
10701;SDS011;5402;50.004;8.246;2023-03-21T12:09:25;5.30;;;3.40;;
10701;SDS011;5402;50.004;8.246;2023-03-21T12:12:04;4.10;;;3.37;;
10701;SDS011;5402;50.004;8.246;2023-03-21T12:14:44;5.50;;;3.80;;
10701;SDS011;5402;50.004;8.246;2023-03-21T12:17:19;4.97;;;3.40;;
10701;SDS011;5402;50.004;8.246;2023-03-21T12:19:55;6.87;;;3.53;;
10701;SDS011;5402;50.004;8.246;2023-03-21T12:22:40;7.90;;;3.87;;
10701;SDS011;5402;50.004;8.246;2023-03-21T12:25:16;5.43;;;4.40;;
10701;SDS011;5402;50.004;8.246;2023-03-21T12:27:49;12.13;;;8.07;;
10701;SDS011;5402;50.004;8.246;2023-03-21T12:30:26;11.43;;;8.23;;
10701;SDS011;5402;50.004;8.246;2023-03-21T12:33:08;5.90;;;3.63;;
10701;SDS011;5402;50.004;8.246;2023-03-21T12:35:49;5.50;;;3.67;;
10701;SDS011;5402;50.004;8.246;2023-03-21T12:38:22;6.13;;;3.90;;
10701;SDS011;5402;50.004;8.246;2023-03-21T12:40:56;5.50;;;4.20;;
10701;SDS011;5402;50.004;8.246;2023-03-21T12:43:39;8.90;;;4.87;;
10701;SDS011;5402;50.004;8.246;2023-03-21T12:46:10;6.40;;;3.97;;
10701;SDS011;5402;50.004;8.246;2023-03-21T12:48:42;5.87;;;3.97;;
10701;SDS011;5402;50.004;8.246;2023-03-21T12:51:13;7.50;;;5.17;;
10701;SDS011;5402;50.004;8.246;2023-03-21T12:53:46;8.47;;;4.70;;
10701;SDS011;5402;50.004;8.246;2023-03-21T12:56:19;8.13;;;4.87;;
10701;SDS011;5402;50.004;8.246;2023-03-21T12:58:55;9.40;;;4.87;;
10701;SDS011;5402;50.004;8.246;2023-03-21T13:01:26;8.20;;;4.87;;
10701;SDS011;5402;50.004;8.246;2023-03-21T13:04:03;9.17;;;4.50;;
10701;SDS011;5402;50.004;8.246;2023-03-21T13:06:34;8.40;;;5.17;;
10701;SDS011;5402;50.004;8.246;2023-03-21T13:09:04;5.70;;;4.60;;
10701;SDS011;5402;50.004;8.246;2023-03-21T13:11:36;8.17;;;5.37;;
10701;SDS011;5402;50.004;8.246;2023-03-21T13:14:06;9.63;;;4.77;;
10701;SDS011;5402;50.004;8.246;2023-03-21T13:16:40;9.83;;;5.23;;
10701;SDS011;5402;50.004;8.246;2023-03-21T13:19:12;6.30;;;3.93;;
10701;SDS011;5402;50.004;8.246;2023-03-21T13:21:48;9.43;;;4.50;;
10701;SDS011;5402;50.004;8.246;2023-03-21T13:24:19;7.70;;;5.50;;
10701;SDS011;5402;50.004;8.246;2023-03-21T13:26:53;7.80;;;4.73;;
10701;SDS011;5402;50.004;8.246;2023-03-21T13:29:28;6.90;;;4.43;;
10701;SDS011;5402;50.004;8.246;2023-03-21T13:32:06;6.43;;;4.87;;
10701;SDS011;5402;50.004;8.246;2023-03-21T13:34:37;7.43;;;5.70;;
10701;SDS011;5402;50.004;8.246;2023-03-21T13:37:05;8.90;;;5.13;;
10701;SDS011;5402;50.004;8.246;2023-03-21T13:39:42;6.60;;;5.03;;
10701;SDS011;5402;50.004;8.246;2023-03-21T13:42:15;8.07;;;4.97;;
10701;SDS011;5402;50.004;8.246;2023-03-21T13:44:51;10.47;;;5.37;;
10701;SDS011;5402;50.004;8.246;2023-03-21T13:47:22;7.50;;;5.00;;
10701;SDS011;5402;50.004;8.246;2023-03-21T13:55:44;8.23;;;5.10;;
10701;SDS011;5402;50.004;8.246;2023-03-21T13:58:21;10.07;;;5.43;;
10701;SDS011;5402;50.004;8.246;2023-03-21T14:01:03;8.30;;;5.63;;
10701;SDS011;5402;50.004;8.246;2023-03-21T14:03:38;7.77;;;5.43;;
10701;SDS011;5402;50.004;8.246;2023-03-21T14:06:05;7.60;;;5.93;;
10701;SDS011;5402;50.004;8.246;2023-03-21T14:08:35;8.57;;;5.40;;
10701;SDS011;5402;50.004;8.246;2023-03-21T14:11:06;8.60;;;6.13;;
10701;SDS011;5402;50.004;8.246;2023-03-21T14:13:37;9.97;;;6.00;;
10701;SDS011;5402;50.004;8.246;2023-03-21T14:16:09;10.87;;;6.10;;
10701;SDS011;5402;50.004;8.246;2023-03-21T14:18:40;8.40;;;5.77;;
10701;SDS011;5402;50.004;8.246;2023-03-21T14:21:14;9.93;;;6.30;;
10701;SDS011;5402;50.004;8.246;2023-03-21T14:23:42;10.13;;;6.23;;
10701;SDS011;5402;50.004;8.246;2023-03-21T14:26:09;7.60;;;5.80;;
10701;SDS011;5402;50.004;8.246;2023-03-21T14:28:38;8.27;;;6.10;;
10701;SDS011;5402;50.004;8.246;2023-03-21T14:31:17;8.67;;;5.53;;
10701;SDS011;5402;50.004;8.246;2023-03-21T14:33:45;7.63;;;5.90;;
10701;SDS011;5402;50.004;8.246;2023-03-21T14:36:16;10.33;;;5.47;;
10701;SDS011;5402;50.004;8.246;2023-03-21T14:38:52;9.73;;;5.80;;
10701;SDS011;5402;50.004;8.246;2023-03-21T14:41:22;7.10;;;5.50;;
10701;SDS011;5402;50.004;8.246;2023-03-21T14:44:01;8.30;;;5.87;;
10701;SDS011;5402;50.004;8.246;2023-03-21T14:46:37;8.00;;;5.53;;
10701;SDS011;5402;50.004;8.246;2023-03-21T14:49:09;8.17;;;5.47;;
10701;SDS011;5402;50.004;8.246;2023-03-21T14:51:39;6.93;;;5.03;;
10701;SDS011;5402;50.004;8.246;2023-03-21T14:54:08;11.83;;;6.27;;
10701;SDS011;5402;50.004;8.246;2023-03-21T14:56:38;7.40;;;5.20;;
10701;SDS011;5402;50.004;8.246;2023-03-21T14:59:05;6.67;;;5.00;;
10701;SDS011;5402;50.004;8.246;2023-03-21T15:01:38;8.37;;;5.10;;
10701;SDS011;5402;50.004;8.246;2023-03-21T15:04:05;9.13;;;5.83;;
10701;SDS011;5402;50.004;8.246;2023-03-21T15:06:32;9.20;;;5.50;;
10701;SDS011;5402;50.004;8.246;2023-03-21T15:09:01;10.37;;;6.40;;
10701;SDS011;5402;50.004;8.246;2023-03-21T15:11:30;10.97;;;6.20;;
10701;SDS011;5402;50.004;8.246;2023-03-21T15:13:58;9.57;;;5.90;;
10701;SDS011;5402;50.004;8.246;2023-03-21T15:16:27;9.80;;;5.97;;
10701;SDS011;5402;50.004;8.246;2023-03-21T15:18:56;11.40;;;5.50;;
10701;SDS011;5402;50.004;8.246;2023-03-21T15:21:24;8.57;;;5.53;;
10701;SDS011;5402;50.004;8.246;2023-03-21T15:23:54;8.90;;;5.70;;
10701;SDS011;5402;50.004;8.246;2023-03-21T15:26:24;7.97;;;5.60;;
10701;SDS011;5402;50.004;8.246;2023-03-21T15:28:54;9.27;;;6.07;;